Home > Products > Valid Products > TAF

000
FTUS45 KGJT 252341
TAFGJT
TAFGJT
TAF
KGJT 252341Z 2600/2624 30010G15KT P6SM VCTS SCT070CB BKN120
     FM260300 12009KT P6SM SCT100 BKN150
     FM261000 10008KT P6SM FEW050 SCT150
     FM261500 14006KT P6SM FEW030 SCT080 BKN150
     FM261900 27007KT P6SM SCT070 BKN120=



000
FTUS45 KGJT 252341
TAFGJT
TAFGJT
TAF
KGJT 252341Z 2600/2624 30010G15KT P6SM VCTS SCT070CB BKN120
     FM260300 12009KT P6SM SCT100 BKN150
     FM261000 10008KT P6SM FEW050 SCT150
     FM261500 14006KT P6SM FEW030 SCT080 BKN150
     FM261900 27007KT P6SM SCT070 BKN120=



000
FTUS45 KGJT 252341
TAFGJT
TAF
KGJT 252341Z 2600/2624 30010G15KT P6SM VCTS SCT070CB BKN120
     FM260300 12009KT P6SM SCT100 BKN150
     FM261000 10008KT P6SM FEW050 SCT150
     FM261500 14006KT P6SM FEW030 SCT080 BKN150
     FM261900 27007KT P6SM SCT070 BKN120=



000
FTUS45 KGJT 252341
TAFGJT
TAF
KGJT 252341Z 2600/2624 30010G15KT P6SM VCTS SCT070CB BKN120
     FM260300 12009KT P6SM SCT100 BKN150
     FM261000 10008KT P6SM FEW050 SCT150
     FM261500 14006KT P6SM FEW030 SCT080 BKN150
     FM261900 27007KT P6SM SCT070 BKN120=



000
FTUS45 KGJT 252341
TAFGJT
TAF
KGJT 252341Z 2600/2624 30010G15KT P6SM VCTS SCT070CB BKN120
     FM260300 12009KT P6SM SCT100 BKN150
     FM261000 10008KT P6SM FEW050 SCT150
     FM261500 14006KT P6SM FEW030 SCT080 BKN150
     FM261900 27007KT P6SM SCT070 BKN120=



000
FTUS45 KGJT 252341
TAFGJT
TAF
KGJT 252341Z 2600/2624 30010G15KT P6SM VCTS SCT070CB BKN120
     FM260300 12009KT P6SM SCT100 BKN150
     FM261000 10008KT P6SM FEW050 SCT150
     FM261500 14006KT P6SM FEW030 SCT080 BKN150
     FM261900 27007KT P6SM SCT070 BKN120=



000
FTUS45 KGJT 251742
TAFGJT
TAFGJT
TAF
KGJT 251742Z 2518/2618 00000KT P6SM VCTS FEW023 SCT070CB OVC090
      TEMPO 2521/2601 VRB10G20KT -TSRA BKN050CB
     FM260300 10008KT P6SM SCT100 OVC150
     FM261000 10008KT P6SM FEW050 OVC100
     FM261500 14006KT P6SM FEW030 SCT080 BKN140=



000
FTUS45 KGJT 251742
TAFGJT
TAFGJT
TAF
KGJT 251742Z 2518/2618 00000KT P6SM VCTS FEW023 SCT070CB OVC090
      TEMPO 2521/2601 VRB10G20KT -TSRA BKN050CB
     FM260300 10008KT P6SM SCT100 OVC150
     FM261000 10008KT P6SM FEW050 OVC100
     FM261500 14006KT P6SM FEW030 SCT080 BKN140=



000
FTUS45 KGJT 251742
TAFGJT
TAF
KGJT 251742Z 2518/2618 00000KT P6SM VCTS FEW023 SCT070CB OVC090
      TEMPO 2521/2601 VRB10G20KT -TSRA BKN050CB
     FM260300 10008KT P6SM SCT100 OVC150
     FM261000 10008KT P6SM FEW050 OVC100
     FM261500 14006KT P6SM FEW030 SCT080 BKN140=



000
FTUS45 KGJT 251742
TAFGJT
TAF
KGJT 251742Z 2518/2618 00000KT P6SM VCTS FEW023 SCT070CB OVC090
      TEMPO 2521/2601 VRB10G20KT -TSRA BKN050CB
     FM260300 10008KT P6SM SCT100 OVC150
     FM261000 10008KT P6SM FEW050 OVC100
     FM261500 14006KT P6SM FEW030 SCT080 BKN140=



000
FTUS45 KGJT 251141
TAFGJT
TAFGJT
TAF
KGJT 251141Z 2512/2612 10005KT P6SM VCSH SCT060 BKN090
     FM251800 31007KT P6SM VCTS SCT070CB BKN100
     FM260300 10008KT P6SM SCT100 BKN150=



000
FTUS45 KGJT 251141
TAFGJT
TAF
KGJT 251141Z 2512/2612 10005KT P6SM VCSH SCT060 BKN090
     FM251800 31007KT P6SM VCTS SCT070CB BKN100
     FM260300 10008KT P6SM SCT100 BKN150=



000
FTUS45 KGJT 251141
TAFGJT
TAF
KGJT 251141Z 2512/2612 10005KT P6SM VCSH SCT060 BKN090
     FM251800 31007KT P6SM VCTS SCT070CB BKN100
     FM260300 10008KT P6SM SCT100 BKN150=



000
FTUS45 KGJT 251141
TAFGJT
TAFGJT
TAF
KGJT 251141Z 2512/2612 10005KT P6SM VCSH SCT060 BKN090
     FM251800 31007KT P6SM VCTS SCT070CB BKN100
     FM260300 10008KT P6SM SCT100 BKN150=



000
FTUS45 KGJT 250703
TAFGJT
TAFGJT
TAF AMD
KGJT 250703Z 2507/2606 05004KT 6SM -RA SCT040 OVC060
      TEMPO 2507/2509 3SM RA BR OVC040
     FM250900 10005KT P6SM VCSH BKN080
     FM251200 10005KT P6SM BKN120
     FM251800 33005KT P6SM VCSH SCT070 BKN150
     FM260100 30008KT P6SM VCSH BKN100=



000
FTUS45 KGJT 250703 AAB
TAFGJT
TAF AMD
KGJT 250703Z 2507/2606 05004KT 6SM -RA SCT040 OVC060
      TEMPO 2507/2509 3SM RA BR OVC040
     FM250900 10005KT P6SM VCSH BKN080
     FM251200 10005KT P6SM BKN120
     FM251800 33005KT P6SM VCSH SCT070 BKN150
     FM260100 30008KT P6SM VCSH BKN100=



000
FTUS45 KGJT 250703
TAFGJT
TAFGJT
TAF AMD
KGJT 250703Z 2507/2606 05004KT 6SM -RA SCT040 OVC060
      TEMPO 2507/2509 3SM RA BR OVC040
     FM250900 10005KT P6SM VCSH BKN080
     FM251200 10005KT P6SM BKN120
     FM251800 33005KT P6SM VCSH SCT070 BKN150
     FM260100 30008KT P6SM VCSH BKN100=



000
FTUS45 KGJT 250520
TAFGJT
TAF
KGJT 250520Z 2506/2606 05004KT 6SM -RA BKN040 OVC060
     FM250800 10005KT P6SM VCSH BKN080
     FM251200 10005KT P6SM BKN120
     FM251800 33005KT P6SM VCSH SCT070 BKN150
     FM260100 30008KT P6SM VCSH BKN100=



000
FTUS45 KGJT 250520
TAFGJT
TAF
KGJT 250520Z 2506/2606 05004KT 6SM -RA BKN040 OVC060
     FM250800 10005KT P6SM VCSH BKN080
     FM251200 10005KT P6SM BKN120
     FM251800 33005KT P6SM VCSH SCT070 BKN150
     FM260100 30008KT P6SM VCSH BKN100=



000
FTUS45 KGJT 250520
TAFGJT
TAFGJT
TAF
KGJT 250520Z 2506/2606 05004KT 6SM -RA BKN040 OVC060
     FM250800 10005KT P6SM VCSH BKN080
     FM251200 10005KT P6SM BKN120
     FM251800 33005KT P6SM VCSH SCT070 BKN150
     FM260100 30008KT P6SM VCSH BKN100=



000
FTUS45 KGJT 250520
TAFGJT
TAF
KGJT 250520Z 2506/2606 05004KT 6SM -RA BKN040 OVC060
     FM250800 10005KT P6SM VCSH BKN080
     FM251200 10005KT P6SM BKN120
     FM251800 33005KT P6SM VCSH SCT070 BKN150
     FM260100 30008KT P6SM VCSH BKN100=



000
FTUS45 KGJT 250520
TAFGJT
TAFGJT
TAF
KGJT 250520Z 2506/2606 05004KT 6SM -RA BKN040 OVC060
     FM250800 10005KT P6SM VCSH BKN080
     FM251200 10005KT P6SM BKN120
     FM251800 33005KT P6SM VCSH SCT070 BKN150
     FM260100 30008KT P6SM VCSH BKN100=



000
FTUS45 KGJT 250256
TAFGJT
TAFGJT
TAF AMD
KGJT 250256Z 2503/2524 34005KT P6SM -RA SCT045 OVC070
      TEMPO 2503/2505 P6SM NSW
     FM250500 10006KT P6SM SCT080 BKN150
     FM251400 VRB03KT P6SM SCT070
     FM251800 33005KT P6SM VCSH SCT070 BKN150=



000
FTUS45 KGJT 250256 AAB
TAFGJT
TAF AMD
KGJT 250256Z 2503/2524 34005KT P6SM -RA SCT045 OVC070
      TEMPO 2503/2505 P6SM NSW
     FM250500 10006KT P6SM SCT080 BKN150
     FM251400 VRB03KT P6SM SCT070
     FM251800 33005KT P6SM VCSH SCT070 BKN150=



000
FTUS45 KGJT 250256 AAB
TAFGJT
TAF AMD
KGJT 250256Z 2503/2524 34005KT P6SM -RA SCT045 OVC070
      TEMPO 2503/2505 P6SM NSW
     FM250500 10006KT P6SM SCT080 BKN150
     FM251400 VRB03KT P6SM SCT070
     FM251800 33005KT P6SM VCSH SCT070 BKN150=



000
FTUS45 KGJT 250256 AAB
TAFGJT
TAF AMD
KGJT 250256Z 2503/2524 34005KT P6SM -RA SCT045 OVC070
      TEMPO 2503/2505 P6SM NSW
     FM250500 10006KT P6SM SCT080 BKN150
     FM251400 VRB03KT P6SM SCT070
     FM251800 33005KT P6SM VCSH SCT070 BKN150=



000
FTUS45 KGJT 242333
TAFGJT
TAF
KGJT 242333Z 2500/2524 VRB05KT P6SM VCSH SCT050 BKN100 OVC150
      TEMPO 2501/2502 VRB15G25KT -SHRA BKN060
     FM250200 10006KT P6SM SCT080 BKN150
     FM251400 VRB03KT P6SM SCT070
     FM251800 33005KT P6SM VCSH SCT070 BKN150=



000
FTUS45 KGJT 242333
TAFGJT
TAFGJT
TAF
KGJT 242333Z 2500/2524 VRB05KT P6SM VCSH SCT050 BKN100 OVC150
      TEMPO 2501/2502 VRB15G25KT -SHRA BKN060
     FM250200 10006KT P6SM SCT080 BKN150
     FM251400 VRB03KT P6SM SCT070
     FM251800 33005KT P6SM VCSH SCT070 BKN150=



000
FTUS45 KGJT 242333
TAFGJT
TAF
KGJT 242333Z 2500/2524 VRB05KT P6SM VCSH SCT050 BKN100 OVC150
      TEMPO 2501/2502 VRB15G25KT -SHRA BKN060
     FM250200 10006KT P6SM SCT080 BKN150
     FM251400 VRB03KT P6SM SCT070
     FM251800 33005KT P6SM VCSH SCT070 BKN150=



000
FTUS45 KGJT 241736
TAFGJT
TAF
KGJT 241736Z 2418/2518 VRB05KT P6SM VCTS SCT030 BKN100CB OVC150
      TEMPO 2420/2424 VRB15G25KT -SHRA BKN060
     FM250200 10006KT P6SM BKN080
     FM251400 VRB03KT P6SM OVC070=



000
FTUS45 KGJT 241736
TAFGJT
TAFGJT
TAF
KGJT 241736Z 2418/2518 VRB05KT P6SM VCTS SCT030 BKN100CB OVC150
      TEMPO 2420/2424 VRB15G25KT -SHRA BKN060
     FM250200 10006KT P6SM BKN080
     FM251400 VRB03KT P6SM OVC070=



000
FTUS45 KGJT 241736
TAFGJT
TAF
KGJT 241736Z 2418/2518 VRB05KT P6SM VCTS SCT030 BKN100CB OVC150
      TEMPO 2420/2424 VRB15G25KT -SHRA BKN060
     FM250200 10006KT P6SM BKN080
     FM251400 VRB03KT P6SM OVC070=



000
FTUS45 KGJT 241139
TAFGJT
TAF
KGJT 241139Z 2412/2512 11008KT P6SM OVC080
     FM241400 13005KT P6SM VCSH OVC060
     FM241800 02005KT P6SM VCTS SCT070CB OVC090
      TEMPO 2420/2424 VRB15G25KT -SHRA BKN060
     FM250200 10006KT P6SM BKN080=



000
FTUS45 KGJT 241139
TAFGJT
TAFGJT
TAF
KGJT 241139Z 2412/2512 11008KT P6SM OVC080
     FM241400 13005KT P6SM VCSH OVC060
     FM241800 02005KT P6SM VCTS SCT070CB OVC090
      TEMPO 2420/2424 VRB15G25KT -SHRA BKN060
     FM250200 10006KT P6SM BKN080=



000
FTUS45 KGJT 241139
TAFGJT
TAF
KGJT 241139Z 2412/2512 11008KT P6SM OVC080
     FM241400 13005KT P6SM VCSH OVC060
     FM241800 02005KT P6SM VCTS SCT070CB OVC090
      TEMPO 2420/2424 VRB15G25KT -SHRA BKN060
     FM250200 10006KT P6SM BKN080=



000
FTUS45 KGJT 241139
TAFGJT
TAF
KGJT 241139Z 2412/2512 11008KT P6SM OVC080
     FM241400 13005KT P6SM VCSH OVC060
     FM241800 02005KT P6SM VCTS SCT070CB OVC090
      TEMPO 2420/2424 VRB15G25KT -SHRA BKN060
     FM250200 10006KT P6SM BKN080=



000
FTUS45 KGJT 241139
TAFGJT
TAFGJT
TAF
KGJT 241139Z 2412/2512 11008KT P6SM OVC080
     FM241400 13005KT P6SM VCSH OVC060
     FM241800 02005KT P6SM VCTS SCT070CB OVC090
      TEMPO 2420/2424 VRB15G25KT -SHRA BKN060
     FM250200 10006KT P6SM BKN080=



000
FTUS45 KGJT 241139
TAFGJT
TAF
KGJT 241139Z 2412/2512 11008KT P6SM OVC080
     FM241400 13005KT P6SM VCSH OVC060
     FM241800 02005KT P6SM VCTS SCT070CB OVC090
      TEMPO 2420/2424 VRB15G25KT -SHRA BKN060
     FM250200 10006KT P6SM BKN080=



000
FTUS45 KGJT 240535
TAFGJT
TAFGJT
TAF
KGJT 240535Z 2406/2506 11009KT P6SM VCSH SCT090 BKN120
     FM240800 11008KT P6SM VCSH SCT070 BKN100
     FM241800 31009KT P6SM VCTS SCT060CB BKN100
     FM250000 09005KT P6SM BKN080=



000
FTUS45 KGJT 240535
TAFGJT
TAF
KGJT 240535Z 2406/2506 11009KT P6SM VCSH SCT090 BKN120
     FM240800 11008KT P6SM VCSH SCT070 BKN100
     FM241800 31009KT P6SM VCTS SCT060CB BKN100
     FM250000 09005KT P6SM BKN080=



000
FTUS45 KGJT 240535
TAFGJT
TAF
KGJT 240535Z 2406/2506 11009KT P6SM VCSH SCT090 BKN120
     FM240800 11008KT P6SM VCSH SCT070 BKN100
     FM241800 31009KT P6SM VCTS SCT060CB BKN100
     FM250000 09005KT P6SM BKN080=



000
FTUS45 KGJT 240535
TAFGJT
TAF
KGJT 240535Z 2406/2506 11009KT P6SM VCSH SCT090 BKN120
     FM240800 11008KT P6SM VCSH SCT070 BKN100
     FM241800 31009KT P6SM VCTS SCT060CB BKN100
     FM250000 09005KT P6SM BKN080=



000
FTUS45 KGJT 232340
TAFGJT
TAF
KGJT 232340Z 2400/2424 35008KT P6SM VCTS SCT045CB BKN060
      TEMPO 2400/2403 VRB15G25KT -TSRA BKN045CB
     FM240300 11007KT P6SM VCSH BKN060 OVC100
     FM240800 11008KT P6SM VCSH SCT070 BKN100
     FM241800 31009KT P6SM VCTS SCT060CB BKN100=



000
FTUS45 KGJT 232340
TAFGJT
TAF
KGJT 232340Z 2400/2424 35008KT P6SM VCTS SCT045CB BKN060
      TEMPO 2400/2403 VRB15G25KT -TSRA BKN045CB
     FM240300 11007KT P6SM VCSH BKN060 OVC100
     FM240800 11008KT P6SM VCSH SCT070 BKN100
     FM241800 31009KT P6SM VCTS SCT060CB BKN100=



000
FTUS45 KGJT 232340
TAFGJT
TAF
KGJT 232340Z 2400/2424 35008KT P6SM VCTS SCT045CB BKN060
      TEMPO 2400/2403 VRB15G25KT -TSRA BKN045CB
     FM240300 11007KT P6SM VCSH BKN060 OVC100
     FM240800 11008KT P6SM VCSH SCT070 BKN100
     FM241800 31009KT P6SM VCTS SCT060CB BKN100=



000
FTUS45 KGJT 232340
TAFGJT
TAF
KGJT 232340Z 2400/2424 35008KT P6SM VCTS SCT045CB BKN060
      TEMPO 2400/2403 VRB15G25KT -TSRA BKN045CB
     FM240300 11007KT P6SM VCSH BKN060 OVC100
     FM240800 11008KT P6SM VCSH SCT070 BKN100
     FM241800 31009KT P6SM VCTS SCT060CB BKN100=



000
FTUS45 KGJT 232340
TAFGJT
TAFGJT
TAF
KGJT 232340Z 2400/2424 35008KT P6SM VCTS SCT045CB BKN060
      TEMPO 2400/2403 VRB15G25KT -TSRA BKN045CB
     FM240300 11007KT P6SM VCSH BKN060 OVC100
     FM240800 11008KT P6SM VCSH SCT070 BKN100
     FM241800 31009KT P6SM VCTS SCT060CB BKN100=



000
FTUS45 KGJT 232340
TAFGJT
TAFGJT
TAF
KGJT 232340Z 2400/2424 35008KT P6SM VCTS SCT045CB BKN060
      TEMPO 2400/2403 VRB15G25KT -TSRA BKN045CB
     FM240300 11007KT P6SM VCSH BKN060 OVC100
     FM240800 11008KT P6SM VCSH SCT070 BKN100
     FM241800 31009KT P6SM VCTS SCT060CB BKN100=



000
FTUS45 KGJT 231737
TAFGJT
TAF
KGJT 231737Z 2318/2418 16010KT P6SM VCSH SCT090
     FM231900 25010KT P6SM VCTS SCT060CB BKN100
      TEMPO 2320/2324 VRB15G25KT -TSRA BKN060CB
     FM240300 11007KT P6SM VCSH BKN060 OVC100
     FM240800 11008KT P6SM BKN100=



000
FTUS45 KGJT 231737
TAFGJT
TAF
KGJT 231737Z 2318/2418 16010KT P6SM VCSH SCT090
     FM231900 25010KT P6SM VCTS SCT060CB BKN100
      TEMPO 2320/2324 VRB15G25KT -TSRA BKN060CB
     FM240300 11007KT P6SM VCSH BKN060 OVC100
     FM240800 11008KT P6SM BKN100=



000
FTUS45 KGJT 231737
TAFGJT
TAFGJT
TAF
KGJT 231737Z 2318/2418 16010KT P6SM VCSH SCT090
     FM231900 25010KT P6SM VCTS SCT060CB BKN100
      TEMPO 2320/2324 VRB15G25KT -TSRA BKN060CB
     FM240300 11007KT P6SM VCSH BKN060 OVC100
     FM240800 11008KT P6SM BKN100=



000
FTUS45 KGJT 231737
TAFGJT
TAFGJT
TAF
KGJT 231737Z 2318/2418 16010KT P6SM VCSH SCT090
     FM231900 25010KT P6SM VCTS SCT060CB BKN100
      TEMPO 2320/2324 VRB15G25KT -TSRA BKN060CB
     FM240300 11007KT P6SM VCSH BKN060 OVC100
     FM240800 11008KT P6SM BKN100=



000
FTUS45 KGJT 231137
TAFGJT
TAF
KGJT 231137Z 2312/2412 12008KT P6SM SCT100
     FM231500 16010KT P6SM BKN120
     FM231800 25010KT P6SM VCTS SCT060CB BKN100
      TEMPO 2320/2324 VRB15G25KT -TSRA BKN060CB
     FM240300 08005KT P6SM VCSH BKN060 OVC100
     FM240800 11008KT P6SM BKN100=



000
FTUS45 KGJT 231137
TAFGJT
TAF
KGJT 231137Z 2312/2412 12008KT P6SM SCT100
     FM231500 16010KT P6SM BKN120
     FM231800 25010KT P6SM VCTS SCT060CB BKN100
      TEMPO 2320/2324 VRB15G25KT -TSRA BKN060CB
     FM240300 08005KT P6SM VCSH BKN060 OVC100
     FM240800 11008KT P6SM BKN100=



000
FTUS45 KGJT 231137
TAFGJT
TAF
KGJT 231137Z 2312/2412 12008KT P6SM SCT100
     FM231500 16010KT P6SM BKN120
     FM231800 25010KT P6SM VCTS SCT060CB BKN100
      TEMPO 2320/2324 VRB15G25KT -TSRA BKN060CB
     FM240300 08005KT P6SM VCSH BKN060 OVC100
     FM240800 11008KT P6SM BKN100=



000
FTUS45 KGJT 231137
TAFGJT
TAF
KGJT 231137Z 2312/2412 12008KT P6SM SCT100
     FM231500 16010KT P6SM BKN120
     FM231800 25010KT P6SM VCTS SCT060CB BKN100
      TEMPO 2320/2324 VRB15G25KT -TSRA BKN060CB
     FM240300 08005KT P6SM VCSH BKN060 OVC100
     FM240800 11008KT P6SM BKN100=



000
FTUS45 KGJT 230732 AAA
TAFGJT
TAF AMD
KGJT 230732Z 2308/2406 11009KT P6SM VCTS SCT070CB OVC100
     FM230900 14012KT P6SM SCT060 BKN100
     FM231600 16010KT P6SM BKN120
     FM232100 25010KT P6SM VCSH SCT060 BKN100
     FM240300 08005KT P6SM VCSH BKN060=



000
FTUS45 KGJT 230732 AAA
TAFGJT
TAF AMD
KGJT 230732Z 2308/2406 11009KT P6SM VCTS SCT070CB OVC100
     FM230900 14012KT P6SM SCT060 BKN100
     FM231600 16010KT P6SM BKN120
     FM232100 25010KT P6SM VCSH SCT060 BKN100
     FM240300 08005KT P6SM VCSH BKN060=



000
FTUS45 KGJT 230732 AAA
TAFGJT
TAF AMD
KGJT 230732Z 2308/2406 11009KT P6SM VCTS SCT070CB OVC100
     FM230900 14012KT P6SM SCT060 BKN100
     FM231600 16010KT P6SM BKN120
     FM232100 25010KT P6SM VCSH SCT060 BKN100
     FM240300 08005KT P6SM VCSH BKN060=



000
FTUS45 KGJT 230732 AAA
TAFGJT
TAF AMD
KGJT 230732Z 2308/2406 11009KT P6SM VCTS SCT070CB OVC100
     FM230900 14012KT P6SM SCT060 BKN100
     FM231600 16010KT P6SM BKN120
     FM232100 25010KT P6SM VCSH SCT060 BKN100
     FM240300 08005KT P6SM VCSH BKN060=



    US Dept of Commerce
    National Oceanic and Atmospheric Administration
    National Weather Service
    1325 East West Highway
    Silver Spring, MD 20910
    Page Author: NWS Internet Services Team
Disclaimer
Information Quality
Credits
Glossary
Privacy Policy
Freedom of Information Act (FOIA)
About Us
Career Opportunities